createdAt,value
2018-06-15T00:00:39.197Z,9.40
2018-06-15T00:03:08.645Z,10.50
2018-06-15T00:05:38.064Z,9.00
2018-06-15T00:08:07.474Z,9.70
2018-06-15T00:10:36.848Z,10.07
2018-06-15T00:13:06.265Z,9.87
2018-06-15T00:15:35.806Z,9.13
2018-06-15T00:18:05.469Z,10.10
2018-06-15T00:20:34.855Z,9.70
2018-06-15T00:23:04.401Z,10.30
2018-06-15T00:25:34.032Z,9.93
2018-06-15T00:28:03.592Z,9.80
2018-06-15T00:30:33.059Z,9.57
2018-06-15T00:33:02.505Z,10.17
2018-06-15T00:35:32.111Z,10.00
2018-06-15T00:38:01.718Z,9.87
2018-06-15T00:40:31.336Z,9.27
2018-06-15T00:43:00.938Z,10.90
2018-06-15T00:45:30.732Z,10.67
2018-06-15T00:48:00.450Z,10.97
2018-06-15T00:50:29.884Z,8.20
2018-06-15T00:52:59.620Z,9.47
2018-06-15T00:55:29.185Z,8.93
2018-06-15T00:57:58.941Z,9.60
2018-06-15T01:00:28.929Z,10.10
2018-06-15T01:02:59.817Z,8.97
2018-06-15T01:05:29.480Z,9.20
2018-06-15T01:07:58.945Z,8.73
2018-06-15T01:10:28.808Z,9.57
2018-06-15T01:12:58.248Z,9.57
2018-06-15T01:15:27.848Z,9.93
2018-06-15T01:17:57.372Z,9.90
2018-06-15T01:20:26.804Z,9.13
2018-06-15T01:22:56.206Z,8.90
2018-06-15T01:25:25.627Z,8.70
2018-06-15T01:27:55.117Z,9.27
2018-06-15T01:30:24.565Z,9.33
2018-06-15T01:32:53.922Z,10.10
2018-06-15T01:35:25.045Z,8.90
2018-06-15T01:37:54.471Z,9.90
2018-06-15T01:40:24.004Z,9.50
2018-06-15T01:42:53.380Z,9.13
2018-06-15T01:45:22.919Z,9.47
2018-06-15T01:47:52.364Z,9.47
2018-06-15T01:50:26.124Z,9.90
2018-06-15T01:52:55.499Z,9.73
2018-06-15T01:55:28.941Z,9.90
2018-06-15T01:57:58.393Z,8.13
2018-06-15T02:00:29.768Z,9.93
2018-06-15T02:02:59.276Z,10.57
2018-06-15T02:05:30.084Z,9.33
2018-06-15T02:07:59.457Z,9.47
2018-06-15T02:10:28.948Z,9.70
2018-06-15T02:12:58.352Z,8.90
2018-06-15T02:15:30.169Z,8.33
2018-06-15T02:17:59.524Z,9.60
2018-06-15T02:20:28.925Z,9.07
2018-06-15T02:22:58.473Z,9.80
2018-06-15T02:25:27.923Z,10.23
2018-06-15T02:27:57.344Z,10.00
2018-06-15T02:30:30.213Z,8.87
2018-06-15T02:32:59.696Z,9.40
2018-06-15T02:35:29.280Z,9.00
2018-06-15T02:37:58.893Z,9.80
2018-06-15T02:40:28.249Z,8.77
2018-06-15T02:42:58.208Z,9.10
2018-06-15T02:45:27.747Z,8.70
2018-06-15T02:47:57.313Z,9.90
2018-06-15T02:50:31.435Z,10.20
2018-06-15T02:53:00.840Z,8.00
2018-06-15T02:55:30.327Z,9.80
2018-06-15T02:57:59.696Z,10.17
2018-06-15T03:00:29.408Z,9.43
2018-06-15T03:02:58.753Z,9.50
2018-06-15T03:05:28.264Z,8.80
2018-06-15T03:07:57.693Z,8.90
2018-06-15T03:10:27.489Z,8.77
2018-06-15T03:12:56.864Z,9.33
2018-06-15T03:15:26.277Z,8.57
2018-06-15T03:17:55.640Z,8.90
2018-06-15T03:20:29.001Z,10.00
2018-06-15T03:22:59.260Z,8.77
2018-06-15T03:25:28.905Z,9.30
2018-06-15T03:27:58.287Z,9.20
2018-06-15T03:30:28.304Z,8.63
2018-06-15T03:32:57.653Z,9.33
2018-06-15T03:35:27.245Z,9.23
2018-06-15T03:37:56.868Z,9.70
2018-06-15T03:40:29.388Z,9.57
2018-06-15T03:42:58.853Z,9.33
2018-06-15T03:45:28.225Z,8.80
2018-06-15T03:47:58.364Z,9.30
2018-06-15T03:50:29.112Z,8.30
2018-06-15T03:52:58.529Z,9.43
2018-06-15T03:55:28.172Z,9.60
2018-06-15T03:57:57.720Z,9.23
2018-06-15T04:00:27.085Z,8.33
2018-06-15T04:02:56.686Z,9.10
2018-06-15T04:05:26.070Z,9.03
2018-06-15T04:07:55.404Z,9.50
2018-06-15T04:10:30.321Z,8.87
2018-06-15T04:12:59.694Z,9.23
2018-06-15T04:15:29.233Z,8.50
2018-06-15T04:18:06.160Z,8.90
2018-06-15T04:20:37.052Z,9.17
2018-06-15T04:23:06.482Z,8.93
2018-06-15T04:25:35.849Z,8.87
2018-06-15T04:28:05.304Z,9.20
2018-06-15T04:30:34.677Z,8.83
2018-06-15T04:33:04.224Z,9.20
2018-06-15T04:35:33.820Z,7.90
2018-06-15T04:38:03.207Z,8.10
2018-06-15T04:40:32.729Z,9.77
2018-06-15T04:43:02.106Z,9.13
2018-06-15T04:45:32.130Z,9.80
2018-06-15T04:48:01.477Z,9.13
2018-06-15T04:50:32.721Z,8.77
2018-06-15T04:53:02.260Z,9.10
2018-06-15T04:55:31.599Z,8.63
2018-06-15T04:58:00.955Z,9.43
2018-06-15T05:00:30.520Z,9.63
2018-06-15T05:03:00.350Z,9.03
2018-06-15T05:05:30.682Z,8.07
2018-06-15T05:08:00.035Z,8.90
2018-06-15T05:10:30.206Z,8.50
2018-06-15T05:12:59.812Z,9.20
2018-06-15T05:15:29.408Z,8.83
2018-06-15T05:17:58.769Z,9.33
2018-06-15T05:20:28.312Z,9.17
2018-06-15T05:22:57.948Z,10.03
2018-06-15T05:25:28.639Z,9.53
2018-06-15T05:27:57.992Z,8.83
2018-06-15T05:30:28.932Z,9.13
2018-06-15T05:32:58.376Z,9.40
2018-06-15T05:35:27.752Z,8.87
2018-06-15T05:37:57.120Z,9.57
2018-06-15T05:40:26.560Z,9.60
2018-06-15T05:42:56.009Z,8.97
2018-06-15T05:45:27.112Z,9.20
2018-06-15T05:47:56.781Z,9.17
2018-06-15T05:50:26.133Z,9.13
2018-06-15T05:52:55.729Z,9.07
2018-06-15T05:55:25.124Z,9.00
2018-06-15T05:57:54.739Z,9.50
2018-06-15T06:00:24.140Z,9.20
2018-06-15T06:02:53.506Z,10.53
2018-06-15T06:05:24.509Z,9.30
2018-06-15T06:07:53.932Z,10.33
2018-06-15T06:10:23.744Z,9.50
2018-06-15T06:12:53.276Z,9.97
2018-06-15T06:15:28.873Z,8.10
2018-06-15T06:17:58.526Z,9.33
2018-06-15T06:20:29.342Z,9.30
2018-06-15T06:22:58.704Z,8.77
2018-06-15T06:25:28.094Z,9.87
2018-06-15T06:27:57.600Z,9.60
2018-06-15T06:30:27.177Z,10.20
2018-06-15T06:32:56.687Z,8.90
2018-06-15T06:35:26.053Z,9.37
2018-06-15T06:37:55.746Z,10.20
2018-06-15T06:40:25.332Z,10.00
2018-06-15T06:42:54.954Z,9.20
2018-06-15T06:45:27.136Z,9.13
2018-06-15T06:47:56.507Z,9.60
2018-06-15T06:50:29.767Z,10.40
2018-06-15T06:52:59.627Z,10.20
2018-06-15T06:55:31.384Z,10.03
2018-06-15T06:58:00.876Z,11.27
2018-06-15T07:00:30.240Z,9.77
2018-06-15T07:02:59.741Z,10.33
2018-06-15T07:05:29.521Z,10.40
2018-06-15T07:07:58.871Z,10.20
2018-06-15T07:10:34.307Z,9.40
2018-06-15T07:13:03.725Z,9.10
2018-06-15T07:15:33.129Z,11.10
2018-06-15T07:18:02.488Z,9.83
2018-06-15T07:20:32.211Z,10.63
2018-06-15T07:23:02.761Z,10.33
2018-06-15T07:25:32.165Z,11.07
2018-06-15T07:28:01.693Z,10.03
2018-06-15T07:30:32.288Z,10.13
2018-06-15T07:33:01.830Z,10.60
2018-06-15T07:35:31.437Z,10.63
2018-06-15T07:38:01.054Z,9.30
2018-06-15T07:40:30.654Z,10.10
2018-06-15T07:43:00.075Z,12.03
2018-06-15T07:45:29.577Z,9.60
2018-06-15T07:47:59.162Z,9.23
2018-06-15T07:50:28.535Z,9.20
2018-06-15T07:52:57.904Z,9.03
2018-06-15T07:55:27.319Z,9.77
2018-06-15T07:57:56.874Z,8.90
2018-06-15T08:00:26.259Z,9.23
2018-06-15T08:02:55.620Z,9.67
2018-06-15T08:05:25.172Z,10.57
2018-06-15T08:07:54.849Z,10.27
2018-06-15T08:10:24.234Z,9.10
2018-06-15T08:12:53.656Z,9.47
2018-06-15T08:15:23.059Z,11.03
2018-06-15T08:17:52.579Z,8.37
2018-06-15T08:20:22.306Z,9.07
2018-06-15T08:22:51.909Z,8.67
2018-06-15T08:25:21.264Z,9.80
2018-06-15T08:27:50.712Z,9.67
2018-06-15T08:30:20.446Z,10.73
2018-06-15T08:32:50.011Z,10.93
2018-06-15T08:35:19.561Z,9.70
2018-06-15T08:37:48.961Z,8.43
2018-06-15T08:40:18.817Z,9.10
2018-06-15T08:42:48.393Z,9.27
2018-06-15T08:45:18.137Z,9.47
2018-06-15T08:47:47.616Z,9.37
2018-06-15T08:50:17.103Z,8.90
2018-06-15T08:52:46.537Z,9.00
2018-06-15T08:55:16.501Z,9.73
2018-06-15T08:57:46.049Z,8.10
2018-06-15T09:00:15.656Z,7.80
2018-06-15T09:02:45.263Z,8.50
2018-06-15T09:05:15.050Z,8.40
2018-06-15T09:07:44.401Z,8.80
2018-06-15T09:10:14.312Z,7.90
2018-06-15T09:12:43.651Z,7.90
2018-06-15T09:15:13.165Z,6.03
2018-06-15T09:17:42.517Z,7.50
2018-06-15T09:20:12.488Z,7.73
2018-06-15T09:22:44.535Z,8.40
2018-06-15T09:25:17.540Z,8.23
2018-06-15T09:27:50.152Z,8.47
2018-06-15T09:30:19.762Z,7.87
2018-06-15T09:32:49.800Z,7.10
2018-06-15T09:35:20.109Z,7.10
2018-06-15T09:37:49.648Z,7.57
2018-06-15T09:40:22.271Z,6.70
2018-06-15T09:42:56.148Z,6.30
2018-06-15T09:45:25.505Z,7.27
2018-06-15T09:47:54.959Z,7.37
2018-06-15T09:50:26.527Z,7.60
2018-06-15T09:52:57.400Z,7.43
2018-06-15T09:55:27.021Z,7.90
2018-06-15T09:57:56.395Z,6.97
2018-06-15T10:00:30.919Z,7.63
2018-06-15T10:03:00.271Z,6.40
2018-06-15T10:05:29.736Z,6.90
2018-06-15T10:07:59.341Z,6.87
2018-06-15T10:10:32.290Z,5.70
2018-06-15T10:13:02.319Z,6.37
2018-06-15T10:15:31.653Z,7.37
2018-06-15T10:18:01.166Z,6.40
2018-06-15T10:20:30.796Z,6.37
2018-06-15T10:23:00.985Z,6.47
2018-06-15T10:25:30.647Z,7.10
2018-06-15T10:28:00.212Z,6.23
2018-06-15T10:30:29.595Z,6.43
2018-06-15T10:32:59.131Z,5.97
2018-06-15T10:35:28.732Z,5.73
2018-06-15T10:37:58.952Z,6.70
2018-06-15T10:40:28.352Z,5.67
2018-06-15T10:42:57.872Z,5.80
2018-06-15T10:45:27.425Z,5.30
2018-06-15T10:47:57.032Z,5.10
2018-06-15T10:50:26.780Z,4.83
2018-06-15T10:52:56.816Z,5.63
2018-06-15T10:55:26.182Z,4.43
2018-06-15T10:57:55.518Z,5.07
2018-06-15T11:00:25.035Z,4.50
2018-06-15T11:02:54.671Z,5.87
2018-06-15T11:05:24.017Z,4.67
2018-06-15T11:07:53.369Z,5.30
2018-06-15T11:10:23.079Z,5.43
2018-06-15T11:12:52.592Z,4.80
2018-06-15T11:15:22.695Z,4.33
2018-06-15T11:17:52.392Z,4.40
2018-06-15T11:20:21.810Z,4.10
2018-06-15T11:22:51.148Z,4.97
2018-06-15T11:25:20.666Z,4.60
2018-06-15T11:27:50.447Z,4.93
2018-06-15T11:30:20.076Z,4.33
2018-06-15T11:32:49.414Z,4.53
2018-06-15T11:35:19.072Z,4.43
2018-06-15T11:37:48.674Z,5.57
2018-06-15T11:40:18.101Z,4.83
2018-06-15T11:42:47.540Z,4.77
2018-06-15T11:45:16.961Z,3.80
2018-06-15T11:47:46.378Z,5.03
2018-06-15T11:50:15.789Z,4.80
2018-06-15T11:52:45.129Z,4.67
2018-06-15T11:55:14.688Z,4.80
2018-06-15T11:57:44.330Z,4.90
2018-06-15T12:00:15.519Z,3.90
2018-06-15T12:02:45.041Z,4.30
2018-06-15T12:05:14.648Z,4.77
2018-06-15T12:07:44.560Z,5.50
2018-06-15T12:10:14.147Z,6.17
2018-06-15T12:12:44.243Z,5.40
2018-06-15T12:15:13.784Z,6.00
2018-06-15T12:17:43.294Z,5.63
2018-06-15T12:20:12.903Z,6.30
2018-06-15T12:22:42.249Z,5.70
2018-06-15T12:25:12.559Z,5.83
2018-06-15T12:27:41.969Z,5.70
2018-06-15T12:30:11.564Z,6.47
2018-06-15T12:32:41.004Z,7.17
2018-06-15T12:35:10.571Z,6.00
2018-06-15T12:37:39.800Z,6.50
2018-06-15T12:40:09.332Z,7.23
2018-06-15T12:42:38.689Z,6.17
2018-06-15T12:45:08.371Z,7.20
2018-06-15T12:47:37.708Z,8.00
2018-06-15T12:50:07.299Z,6.10
2018-06-15T12:52:36.680Z,7.03
2018-06-15T12:55:06.471Z,5.90
2018-06-15T12:57:36.061Z,6.13
2018-06-15T13:00:05.852Z,7.17
2018-06-15T13:02:35.185Z,6.77
2018-06-15T13:05:04.653Z,7.27
2018-06-15T13:07:34.217Z,7.23
2018-06-15T13:10:03.580Z,6.03
2018-06-15T13:12:33.165Z,6.87
2018-06-15T13:15:02.765Z,6.27
2018-06-15T13:17:32.932Z,7.10
2018-06-15T13:20:02.593Z,6.17
2018-06-15T13:22:32.369Z,7.00
2018-06-15T13:25:01.704Z,6.20
2018-06-15T13:27:31.101Z,6.27
2018-06-15T13:30:00.681Z,6.83
2018-06-15T13:32:30.292Z,7.20
2018-06-15T13:34:59.876Z,6.63
2018-06-15T13:37:29.199Z,7.00
2018-06-15T13:39:58.534Z,6.27
2018-06-15T13:42:28.117Z,7.50
2018-06-15T13:44:57.732Z,6.97
2018-06-15T13:47:27.083Z,8.47
2018-06-15T13:49:56.964Z,7.00
2018-06-15T13:52:26.381Z,7.13
2018-06-15T13:54:55.849Z,7.37
2018-06-15T13:57:25.468Z,6.13
2018-06-15T13:59:55.254Z,6.87
2018-06-15T14:02:24.684Z,6.63
2018-06-15T14:04:54.166Z,6.67
2018-06-15T14:07:23.796Z,6.97
2018-06-15T14:09:53.141Z,7.40
2018-06-15T14:12:22.756Z,6.13
2018-06-15T14:14:52.110Z,5.73
2018-06-15T14:17:21.707Z,5.40
2018-06-15T14:19:51.343Z,7.23
2018-06-15T14:22:20.980Z,6.50
2018-06-15T14:24:50.308Z,6.93
2018-06-15T14:27:19.839Z,7.90
2018-06-15T14:29:49.204Z,6.90
2018-06-15T14:32:18.583Z,7.10
2018-06-15T14:34:47.944Z,6.53
2018-06-15T14:37:17.289Z,6.60
2018-06-15T14:39:46.697Z,7.73
2018-06-15T14:42:16.209Z,6.60
2018-06-15T14:44:45.556Z,8.20
2018-06-15T14:47:14.912Z,7.10
2018-06-15T14:49:44.651Z,7.03
2018-06-15T14:52:13.992Z,7.63
2018-06-15T14:54:43.438Z,7.00
2018-06-15T14:57:13.001Z,6.70
2018-06-15T14:59:42.612Z,6.63
2018-06-15T15:02:12.630Z,6.57
2018-06-15T15:04:42.060Z,6.90
2018-06-15T15:07:11.431Z,6.40
2018-06-15T15:09:41.054Z,6.77
2018-06-15T15:12:10.669Z,7.77
2018-06-15T15:14:40.287Z,6.23
2018-06-15T15:17:09.905Z,6.53
2018-06-15T15:19:39.269Z,6.00
2018-06-15T15:22:08.650Z,5.90
2018-06-15T15:24:38.109Z,6.30
2018-06-15T15:27:07.481Z,6.03
2018-06-15T15:29:37.026Z,6.53
2018-06-15T15:32:06.895Z,6.47
2018-06-15T15:34:39.640Z,6.50
2018-06-15T15:37:09.230Z,5.40
2018-06-15T15:39:38.781Z,6.37
2018-06-15T15:42:08.448Z,5.10
2018-06-15T15:44:37.947Z,5.93
2018-06-15T15:47:07.265Z,6.33
2018-06-15T15:49:36.916Z,6.20
2018-06-15T15:52:06.273Z,5.90
2018-06-15T15:54:35.829Z,5.93
2018-06-15T15:57:05.608Z,5.73
2018-06-15T15:59:35.034Z,6.10
2018-06-15T16:02:04.431Z,5.47
2018-06-15T16:04:34.014Z,5.60
2018-06-15T16:07:03.596Z,5.70
2018-06-15T16:09:32.932Z,6.77
2018-06-15T16:12:02.358Z,5.60
2018-06-15T16:14:31.776Z,6.47
2018-06-15T16:17:01.154Z,5.90
2018-06-15T16:19:30.490Z,4.90
2018-06-15T16:21:59.996Z,6.43
2018-06-15T16:24:29.609Z,6.23
2018-06-15T16:26:58.960Z,6.17
2018-06-15T16:29:28.644Z,5.60
2018-06-15T16:31:58.361Z,5.33
2018-06-15T16:34:27.700Z,5.23
2018-06-15T16:36:57.353Z,6.10
2018-06-15T16:39:26.963Z,5.50
2018-06-15T16:41:56.544Z,4.60
2018-06-15T16:44:25.912Z,5.90
2018-06-15T16:46:55.476Z,5.57
2018-06-15T16:49:25.105Z,5.73
2018-06-15T16:51:54.524Z,5.53
2018-06-15T16:54:24.176Z,5.07
2018-06-15T16:56:53.600Z,6.07
2018-06-15T16:59:22.952Z,5.60
2018-06-15T17:01:52.529Z,5.40
2018-06-15T17:04:22.063Z,5.50
2018-06-15T17:06:51.445Z,5.10
2018-06-15T17:09:21.028Z,5.10
2018-06-15T17:11:50.612Z,5.43
2018-06-15T17:14:19.996Z,5.63
2018-06-15T17:16:49.374Z,6.10
2018-06-15T17:19:18.832Z,5.83
2018-06-15T17:21:48.193Z,6.10
2018-06-15T17:24:17.987Z,6.00
2018-06-15T17:26:47.604Z,8.00
2018-06-15T17:29:16.965Z,5.93
2018-06-15T17:31:46.321Z,6.83
2018-06-15T17:34:16.307Z,6.63
2018-06-15T17:36:46.320Z,5.87
2018-06-15T17:39:15.825Z,6.60
2018-06-15T17:41:45.860Z,5.80
2018-06-15T17:44:15.213Z,5.47
2018-06-15T17:46:45.128Z,6.10
2018-06-15T17:49:14.721Z,5.80
2018-06-15T17:51:44.612Z,6.00
2018-06-15T17:54:14.004Z,6.37
2018-06-15T17:56:43.544Z,5.83
2018-06-15T17:59:13.176Z,5.10
2018-06-15T18:01:42.550Z,6.00
2018-06-15T18:04:12.121Z,5.33
2018-06-15T18:06:41.684Z,5.40
2018-06-15T18:09:11.750Z,5.60
2018-06-15T18:11:44.298Z,6.83
2018-06-15T18:14:13.661Z,6.00
2018-06-15T18:16:43.008Z,5.10
2018-06-15T18:19:12.348Z,5.70
2018-06-15T18:21:41.678Z,5.80
2018-06-15T18:24:11.130Z,5.53
2018-06-15T18:26:40.516Z,6.50
2018-06-15T18:29:10.016Z,5.50
2018-06-15T18:31:39.542Z,6.13
2018-06-15T18:34:09.173Z,5.40
2018-06-15T18:36:38.832Z,5.83
2018-06-15T18:39:11.214Z,5.37
2018-06-15T18:41:40.564Z,5.50
2018-06-15T18:44:10.386Z,5.17
2018-06-15T18:46:39.829Z,5.43
2018-06-15T18:49:09.284Z,5.03
2018-06-15T18:51:38.656Z,6.43
2018-06-15T18:54:08.124Z,5.43
2018-06-15T18:56:37.512Z,5.60
2018-06-15T18:59:06.882Z,5.10
2018-06-15T19:01:36.461Z,5.23
2018-06-15T19:04:06.284Z,5.30
2018-06-15T19:06:35.852Z,6.30
2018-06-15T19:09:07.804Z,5.63
2018-06-15T19:11:37.334Z,5.50
2018-06-15T19:14:06.871Z,5.37
2018-06-15T19:16:36.265Z,5.07
2018-06-15T19:19:05.998Z,5.13
2018-06-15T19:21:35.737Z,5.77
2018-06-15T19:24:05.439Z,5.50
2018-06-15T19:26:34.850Z,5.77
2018-06-15T19:29:04.456Z,5.90
2018-06-15T19:31:33.904Z,5.00
2018-06-15T19:34:03.283Z,4.93
2018-06-15T19:36:32.700Z,5.30
2018-06-15T19:39:02.440Z,5.50
2018-06-15T19:41:32.050Z,5.43
2018-06-15T19:44:01.728Z,5.37
2018-06-15T19:46:31.239Z,4.67
2018-06-15T19:49:00.628Z,5.30
2018-06-15T19:51:30.277Z,5.27
2018-06-15T19:53:59.640Z,5.60
2018-06-15T19:56:29.268Z,4.70
2018-06-15T19:58:58.668Z,5.10
2018-06-15T20:01:28.547Z,4.77
2018-06-15T20:03:57.903Z,5.97
2018-06-15T20:06:27.540Z,5.00
2018-06-15T20:08:57.598Z,5.10
2018-06-15T20:11:26.947Z,4.10
2018-06-15T20:13:56.388Z,5.50
2018-06-15T20:16:25.745Z,4.60
2018-06-15T20:18:55.262Z,5.17
2018-06-15T20:21:25.090Z,4.10
2018-06-15T20:23:54.427Z,4.77
2018-06-15T20:26:23.802Z,4.40
2018-06-15T20:28:53.154Z,4.80
2018-06-15T20:31:22.665Z,4.73
2018-06-15T20:33:52.292Z,5.30
2018-06-15T20:36:21.868Z,4.80
2018-06-15T20:38:51.572Z,4.40
2018-06-15T20:41:21.126Z,5.07
2018-06-15T20:43:50.716Z,5.13
2018-06-15T20:46:20.978Z,4.03
2018-06-15T20:48:50.573Z,4.93
2018-06-15T20:51:20.017Z,4.47
2018-06-15T20:53:49.989Z,4.00
2018-06-15T20:56:19.709Z,4.77
2018-06-15T20:58:49.280Z,4.57
2018-06-15T21:01:18.904Z,4.00
2018-06-15T21:03:48.274Z,4.90
2018-06-15T21:06:17.630Z,5.30
2018-06-15T21:08:47.081Z,4.57
2018-06-15T21:11:17.356Z,5.17
2018-06-15T21:13:46.709Z,5.53
2018-06-15T21:16:16.223Z,4.60
2018-06-15T21:18:45.544Z,5.17
2018-06-15T21:21:15.135Z,4.37
2018-06-15T21:23:44.728Z,5.20
2018-06-15T21:26:14.073Z,5.37
2018-06-15T21:28:43.655Z,5.00
2018-06-15T21:31:12.989Z,4.40
2018-06-15T21:33:42.560Z,4.53
2018-06-15T21:36:12.167Z,5.83
2018-06-15T21:38:41.771Z,3.90
2018-06-15T21:41:11.512Z,4.27
2018-06-15T21:43:41.252Z,5.20
2018-06-15T21:46:10.916Z,5.03
2018-06-15T21:48:40.268Z,5.03
2018-06-15T21:51:10.735Z,4.60
2018-06-15T21:53:40.092Z,4.60
2018-06-15T21:56:10.050Z,5.43
2018-06-15T21:58:39.576Z,4.27
2018-06-15T22:01:08.970Z,5.00
2018-06-15T22:03:38.470Z,5.03
2018-06-15T22:06:08.079Z,4.60
2018-06-15T22:08:37.721Z,4.83
2018-06-15T22:11:07.089Z,4.90
2018-06-15T22:13:36.596Z,5.00
2018-06-15T22:16:07.140Z,4.83
2018-06-15T22:18:36.481Z,5.73
2018-06-15T22:21:06.085Z,5.03
2018-06-15T22:23:35.464Z,5.30
2018-06-15T22:26:05.114Z,5.43
2018-06-15T22:28:34.669Z,5.23
2018-06-15T22:31:04.241Z,4.70
2018-06-15T22:33:33.771Z,5.70
2018-06-15T22:36:03.254Z,5.13
2018-06-15T22:38:32.749Z,5.60
2018-06-15T22:41:02.093Z,5.63
2018-06-15T22:43:31.497Z,5.10
2018-06-15T22:46:00.930Z,5.07
2018-06-15T22:48:30.311Z,5.90
2018-06-15T22:50:59.902Z,5.43
2018-06-15T22:53:30.131Z,5.30
2018-06-15T22:55:59.636Z,4.87
2018-06-15T22:58:29.054Z,6.10
2018-06-15T23:00:58.417Z,5.40
2018-06-15T23:03:27.856Z,5.30
2018-06-15T23:05:57.405Z,5.10
2018-06-15T23:08:27.310Z,5.73
2018-06-15T23:10:57.250Z,6.00
2018-06-15T23:13:26.908Z,4.90
2018-06-15T23:15:56.505Z,5.30
2018-06-15T23:18:26.358Z,5.57
2018-06-15T23:20:55.699Z,5.40
2018-06-15T23:23:25.292Z,5.67
2018-06-15T23:25:55.697Z,6.10
2018-06-15T23:28:25.183Z,5.33
2018-06-15T23:30:54.552Z,5.53
2018-06-15T23:33:23.907Z,5.67
2018-06-15T23:35:53.358Z,5.30
2018-06-15T23:38:22.750Z,5.10
2018-06-15T23:40:52.126Z,5.67
2018-06-15T23:43:22.513Z,5.97
2018-06-15T23:45:52.111Z,5.97
2018-06-15T23:48:21.459Z,6.37
2018-06-15T23:50:50.799Z,5.60
2018-06-15T23:53:20.285Z,6.67
2018-06-15T23:55:49.927Z,5.60
2018-06-15T23:58:19.484Z,6.40
